Time;durP1;ratioP1;P1;durP2;ratioP2;P2;SDS_P1;SDS_P2;PMS_P1;PMS_P2;Temp;Humidity;BMP_temperature;BMP_pressure;BME280_temperature;BME280_humidity;BME280_pressure;Samples;Min_cycle;Max_cycle;Signal;HPM_P1;HPM_P2
2022/08/25 00:01:39;;;;;;;12.63;6.97;;;;;;;22.98;100.00;99106.25;4993201;28;20183;-72
2022/08/25 00:04:09;;;;;;;18.70;7.90;;;;;;;22.95;100.00;99120.38;5009779;28;20264;-72
2022/08/25 00:06:37;;;;;;;18.00;8.37;;;;;;;22.94;100.00;99123.38;5012931;28;20225;-72
2022/08/25 00:09:04;;;;;;;21.80;7.70;;;;;;;23.02;100.00;99122.75;5013181;28;20285;-72
2022/08/25 00:11:33;;;;;;;17.27;7.50;;;;;;;22.95;100.00;99111.47;5013153;28;20253;-72
2022/08/25 00:14:02;;;;;;;12.47;7.90;;;;;;;22.92;100.00;99123.66;5012745;28;20264;-72
2022/08/25 00:16:31;;;;;;;18.27;8.07;;;;;;;22.86;100.00;99129.38;5012491;28;20241;-71
2022/08/25 00:19:01;;;;;;;23.10;8.00;;;;;;;22.88;100.00;99135.34;5012422;28;20202;-72
2022/08/25 00:21:30;;;;;;;16.30;7.33;;;;;;;22.91;100.00;99138.28;5013059;28;20246;-72
2022/08/25 00:23:57;;;;;;;16.03;6.60;;;;;;;22.90;100.00;99136.69;5012880;28;20195;-72
2022/08/25 00:26:25;;;;;;;15.57;7.47;;;;;;;22.89;100.00;99129.66;5012661;28;20217;-72
2022/08/25 00:28:52;;;;;;;13.43;7.40;;;;;;;22.89;100.00;99123.41;5012046;28;20320;-72
2022/08/25 00:31:22;;;;;;;16.13;7.27;;;;;;;22.95;100.00;99127.72;5012314;28;20656;-72
2022/08/25 00:33:51;;;;;;;15.27;6.87;;;;;;;23.01;100.00;99127.38;5012816;28;20198;-72
2022/08/25 00:36:19;;;;;;;15.20;7.27;;;;;;;22.94;100.00;99126.88;5012085;28;20190;-72
2022/08/25 00:38:48;;;;;;;15.93;7.33;;;;;;;22.85;100.00;99114.25;5012640;28;20207;-72
2022/08/25 00:41:19;;;;;;;15.40;6.97;;;;;;;22.90;100.00;99119.59;5012072;28;20191;-72
2022/08/25 00:43:50;;;;;;;19.27;7.70;;;;;;;22.85;100.00;99115.06;5012833;28;20542;-72
2022/08/25 00:46:21;;;;;;;14.40;7.20;;;;;;;22.88;100.00;99117.22;5013323;28;20241;-72
2022/08/25 00:48:52;;;;;;;14.30;7.73;;;;;;;22.84;100.00;99104.50;5013055;28;20652;-72
2022/08/25 00:51:24;;;;;;;15.70;7.37;;;;;;;22.74;100.00;99105.41;5012225;28;20260;-72
2022/08/25 00:53:51;;;;;;;21.60;7.60;;;;;;;22.74;100.00;99101.91;5012813;28;20218;-72
2022/08/25 00:56:19;;;;;;;14.40;7.33;;;;;;;22.78;100.00;99100.25;5012897;28;20202;-72
2022/08/25 00:58:45;;;;;;;15.40;7.00;;;;;;;22.70;100.00;99093.50;5012627;28;20194;-71
2022/08/25 01:01:12;;;;;;;13.50;6.40;;;;;;;22.57;100.00;99088.75;5012881;28;20194;-72
2022/08/25 01:03:39;;;;;;;17.27;7.60;;;;;;;22.51;100.00;99089.91;4999566;28;20234;-71
2022/08/25 01:06:09;;;;;;;15.47;6.47;;;;;;;22.43;100.00;99076.13;4993218;28;20195;-72
2022/08/25 01:08:35;;;;;;;14.30;7.00;;;;;;;22.34;100.00;99072.41;4992131;28;20281;-70
2022/08/25 01:11:06;;;;;;;12.67;6.97;;;;;;;22.43;100.00;99081.53;4993186;28;20202;-72
2022/08/25 01:13:37;;;;;;;13.30;7.23;;;;;;;22.49;100.00;99075.00;4993506;28;20241;-72
2022/08/25 01:16:04;;;;;;;16.53;7.17;;;;;;;22.49;100.00;99070.41;4992388;28;20597;-72
2022/08/25 01:18:44;;;;;;;15.60;7.00;;;;;;;22.56;100.00;99076.31;4992782;28;20573;-73
2022/08/25 01:21:12;;;;;;;20.00;6.80;;;;;;;22.57;100.00;99072.50;4992797;28;20191;-72
2022/08/25 01:23:40;;;;;;;13.17;6.83;;;;;;;22.57;100.00;99077.09;4992140;28;20199;-73
2022/08/25 01:26:13;;;;;;;21.37;7.60;;;;;;;22.58;100.00;99074.13;4992105;28;20199;-72
2022/08/25 01:29:19;;;;;;;21.03;7.10;;;;;;;22.69;100.00;99075.66;4991968;28;20239;-71
2022/08/25 01:31:31;;;;;;;9.33;7.17;;;;;;;22.78;100.00;99073.94;4991976;28;20195;-72
2022/08/25 01:33:58;;;;;;;21.57;8.00;;;;;;;22.62;100.00;99077.88;4991871;28;20750;-72
2022/08/25 01:36:28;;;;;;;16.50;7.23;;;;;;;22.64;100.00;99070.28;4992123;28;20278;-73
2022/08/25 01:38:56;;;;;;;15.53;7.10;;;;;;;22.71;100.00;99068.03;4991876;28;20203;-71
2022/08/25 01:41:35;;;;;;;17.07;7.50;;;;;;;22.76;100.00;99076.16;4992074;28;20231;-72
2022/08/25 01:44:04;;;;;;;15.10;6.67;;;;;;;22.81;100.00;99078.81;4992048;28;20713;-71
2022/08/25 01:46:32;;;;;;;13.33;6.80;;;;;;;22.85;100.00;99079.84;4995835;28;20270;-72
2022/08/25 01:48:59;;;;;;;16.77;6.90;;;;;;;22.88;100.00;99084.69;4995467;28;20281;-72
2022/08/25 01:51:33;;;;;;;13.50;6.67;;;;;;;22.86;100.00;99070.63;4995739;28;20259;-72
2022/08/25 01:53:59;;;;;;;15.07;6.67;;;;;;;22.90;100.00;99071.66;4996652;28;20191;-72
2022/08/25 01:56:26;;;;;;;16.80;6.40;;;;;;;22.80;100.00;99071.78;4995606;28;20561;-72
2022/08/25 01:58:53;;;;;;;10.67;6.40;;;;;;;22.69;100.00;99070.25;4995912;28;20198;-71
2022/08/25 02:01:22;;;;;;;11.13;5.70;;;;;;;22.53;100.00;99066.03;4995286;28;20729;-72
2022/08/25 02:03:51;;;;;;;12.03;6.23;;;;;;;22.52;100.00;99069.84;5009115;28;20230;-72
2022/08/25 02:06:22;;;;;;;9.63;5.00;;;;;;;22.40;100.00;99061.25;5014616;28;20674;-72
2022/08/25 02:08:52;;;;;;;9.77;6.43;;;;;;;22.31;100.00;99056.72;5015065;28;20325;-71
2022/08/25 02:11:18;;;;;;;9.50;5.93;;;;;;;22.24;100.00;99046.22;5015175;28;20205;-72
2022/08/25 02:13:45;;;;;;;6.30;4.93;;;;;;;22.23;100.00;99051.91;5014728;28;20654;-72
2022/08/25 02:16:18;;;;;;;12.77;5.37;;;;;;;22.19;100.00;99043.56;5014768;28;20194;-72
2022/08/25 02:18:46;;;;;;;13.93;6.00;;;;;;;22.17;100.00;99037.59;5015558;28;20194;-72
2022/08/25 02:21:12;;;;;;;6.50;4.70;;;;;;;22.13;100.00;99036.56;5014837;28;20194;-72
2022/08/25 02:23:41;;;;;;;14.40;6.33;;;;;;;22.21;100.00;99041.38;5014496;28;20200;-72
2022/08/25 02:26:09;;;;;;;10.10;5.67;;;;;;;22.26;100.00;99032.41;5014713;28;20221;-71
2022/08/25 02:28:36;;;;;;;11.30;5.47;;;;;;;22.22;100.00;99015.91;5014766;28;20276;-71
2022/08/25 02:31:04;;;;;;;10.80;5.60;;;;;;;22.33;100.00;99032.91;5014632;28;20236;-71
2022/08/25 02:33:31;;;;;;;11.90;6.73;;;;;;;22.36;100.00;99027.72;5014629;28;20190;-71
2022/08/25 02:35:59;;;;;;;12.40;5.57;;;;;;;22.30;100.00;99039.66;5014487;28;20194;-71
2022/08/25 02:38:26;;;;;;;7.87;5.27;;;;;;;22.34;100.00;99035.31;5015582;28;20196;-71
2022/08/25 02:40:53;;;;;;;13.70;5.33;;;;;;;22.29;100.00;99038.06;5014473;28;20284;-71
2022/08/25 02:43:21;;;;;;;12.70;5.93;;;;;;;22.29;100.00;99038.06;5014738;28;20197;-71
2022/08/25 02:45:48;;;;;;;10.00;5.70;;;;;;;22.30;100.00;99028.84;5014138;28;20201;-71
2022/08/25 02:48:15;;;;;;;7.43;5.40;;;;;;;22.32;100.00;99025.84;5014907;28;20252;-71
2022/08/25 02:50:46;;;;;;;8.37;4.60;;;;;;;22.23;100.00;99022.97;5014137;28;20288;-71
2022/08/25 02:53:13;;;;;;;8.77;5.37;;;;;;;22.29;100.00;99010.22;5014442;28;20212;-71
2022/08/25 02:55:40;;;;;;;10.43;5.17;;;;;;;22.30;100.00;99007.19;5013677;28;20223;-71
2022/08/25 02:58:07;;;;;;;5.53;4.30;;;;;;;22.27;100.00;99006.97;5013772;28;20736;-71
2022/08/25 03:00:35;;;;;;;6.93;4.27;;;;;;;22.24;100.00;99007.53;5013941;28;20198;-71
2022/08/25 03:03:02;;;;;;;6.13;4.30;;;;;;;22.23;100.00;98995.91;5005762;28;20190;-71
2022/08/25 03:05:29;;;;;;;9.33;4.60;;;;;;;22.27;100.00;99013.19;4994290;28;20253;-72
2022/08/25 03:07:56;;;;;;;12.30;4.60;;;;;;;22.22;100.00;99004.31;4995465;28;20269;-72
2022/08/25 03:10:23;;;;;;;7.17;4.50;;;;;;;22.22;100.00;98998.91;4993768;28;20222;-72
2022/08/25 03:12:50;;;;;;;7.47;4.17;;;;;;;22.22;100.00;98991.56;4993966;28;20253;-72
2022/08/25 03:15:18;;;;;;;9.63;4.50;;;;;;;22.19;100.00;98994.84;4993959;28;20195;-72
2022/08/25 03:17:49;;;;;;;9.73;4.37;;;;;;;22.25;100.00;98988.31;4994206;28;20198;-71
2022/08/25 03:20:16;;;;;;;6.87;4.00;;;;;;;22.28;100.00;98993.16;4994518;28;20197;-72
2022/08/25 03:22:43;;;;;;;7.87;4.23;;;;;;;22.27;100.00;98991.53;4993862;28;20253;-72
2022/08/25 03:27:54;;;;;;;8.10;3.77;;;;;;;22.31;100.00;98997.19;4994057;28;20238;-72
2022/08/25 03:30:21;;;;;;;6.53;4.40;;;;;;;22.33;100.00;98997.72;4993840;28;20694;-71
2022/08/25 03:32:49;;;;;;;10.83;3.73;;;;;;;22.34;100.00;98996.63;4993585;28;20256;-71
2022/08/25 03:35:16;;;;;;;7.37;4.47;;;;;;;22.36;100.00;99007.97;4993341;28;20253;-69
2022/08/25 03:37:43;;;;;;;11.67;3.50;;;;;;;22.42;100.00;99007.63;4994906;28;20627;-71
2022/08/25 03:40:13;;;;;;;6.93;4.00;;;;;;;22.44;100.00;99016.28;4993290;28;20257;-72
2022/08/25 03:42:40;;;;;;;4.27;3.67;;;;;;;22.35;100.00;99009.06;4993428;28;20675;-72
2022/08/25 03:45:10;;;;;;;9.40;4.23;;;;;;;22.34;100.00;99019.06;4993716;28;20199;-72
2022/08/25 03:47:37;;;;;;;8.50;3.70;;;;;;;22.33;100.00;99030.19;4993576;28;20195;-72
2022/08/25 03:50:07;;;;;;;5.23;3.30;;;;;;;22.36;100.00;99027.72;4993784;28;20218;-72
2022/08/25 03:52:33;;;;;;;6.07;3.70;;;;;;;22.35;100.00;99023.41;4993164;28;20667;-71
2022/08/25 03:55:00;;;;;;;5.97;3.80;;;;;;;22.34;100.00;99024.47;4993450;28;20195;-72
2022/08/25 03:57:27;;;;;;;5.50;4.30;;;;;;;22.32;100.00;99021.25;4993155;28;20253;-72
2022/08/25 03:59:54;;;;;;;7.57;3.97;;;;;;;22.37;100.00;99023.91;4993116;28;20284;-72
2022/08/25 04:02:21;;;;;;;7.80;4.23;;;;;;;22.45;100.00;99020.59;4995215;28;20261;-71
2022/08/25 04:04:49;;;;;;;11.17;3.30;;;;;;;22.43;100.00;99022.81;5012770;28;20252;-71
2022/08/25 04:07:17;;;;;;;10.97;3.27;;;;;;;22.43;100.00;99022.81;5012122;28;20196;-71
2022/08/25 04:09:44;;;;;;;10.80;3.10;;;;;;;22.44;100.00;99029.81;5012627;28;20219;-71
2022/08/25 04:12:11;;;;;;;8.17;3.00;;;;;;;22.48;100.00;99030.91;5012759;28;20256;-72
2022/08/25 04:14:37;;;;;;;8.43;3.13;;;;;;;22.53;100.00;99036.28;5012389;28;20252;-70
2022/08/25 04:17:04;;;;;;;8.50;3.57;;;;;;;22.56;100.00;99024.88;5012653;28;20198;-72
2022/08/25 04:19:31;;;;;;;5.53;3.03;;;;;;;22.75;100.00;99035.81;5012618;28;20256;-72
2022/08/25 04:21:58;;;;;;;7.63;3.60;;;;;;;22.88;100.00;99035.94;5012669;28;20198;-72
2022/08/25 04:24:26;;;;;;;5.97;3.90;;;;;;;23.00;100.00;99033.66;5012270;28;20641;-72
2022/08/25 04:26:53;;;;;;;4.43;3.50;;;;;;;23.08;100.00;99024.88;5011938;28;20205;-72
2022/08/25 04:29:22;;;;;;;7.03;3.30;;;;;;;23.19;100.00;99020.94;5012012;28;20706;-72
2022/08/25 04:31:49;;;;;;;8.77;3.37;;;;;;;23.30;100.00;99022.50;5011998;28;20256;-71
2022/08/25 04:34:16;;;;;;;10.93;3.40;;;;;;;23.35;100.00;99030.56;5011845;28;20194;-72
2022/08/25 04:36:43;;;;;;;7.40;2.97;;;;;;;23.44;99.76;99023.38;5012148;28;20662;-72
2022/08/25 04:39:10;;;;;;;3.33;3.13;;;;;;;23.64;99.01;99023.13;5012391;28;20203;-72
2022/08/25 04:41:39;;;;;;;5.83;2.93;;;;;;;23.88;97.55;99021.16;5012336;28;20278;-72
2022/08/25 04:44:06;;;;;;;5.67;3.10;;;;;;;24.15;95.83;99024.03;5012405;28;20198;-73
2022/08/25 04:46:34;;;;;;;6.00;3.03;;;;;;;24.53;95.77;99031.00;5012945;28;20202;-71
2022/08/25 04:49:02;;;;;;;7.17;3.10;;;;;;;24.95;94.16;99033.53;5011987;28;20241;-72
2022/08/25 04:51:32;;;;;;;6.83;3.17;;;;;;;25.32;91.69;99024.44;5012960;28;20259;-72
2022/08/25 04:54:00;;;;;;;4.47;2.80;;;;;;;25.49;88.01;99026.53;5012266;28;20189;-72
2022/08/25 04:56:28;;;;;;;7.67;2.87;;;;;;;25.70;86.42;99023.06;5011945;28;20204;-72
2022/08/25 04:58:56;;;;;;;3.63;2.93;;;;;;;26.06;85.39;99023.09;5011917;28;20197;-72
2022/08/25 05:01:25;;;;;;;6.10;3.47;;;;;;;26.41;83.92;99024.97;5011903;28;20205;-71
2022/08/25 05:03:55;;;;;;;8.83;3.10;;;;;;;26.71;82.25;99029.69;4996980;28;20609;-72
2022/08/25 05:06:22;;;;;;;6.40;3.47;;;;;;;26.97;80.79;99019.69;4992224;28;20198;-72
2022/08/25 05:08:50;;;;;;;8.80;3.70;;;;;;;27.13;79.21;99018.16;4992355;28;20194;-72
2022/08/25 05:11:17;;;;;;;6.17;3.43;;;;;;;27.30;78.26;99013.63;4992312;28;20280;-71
2022/08/25 05:13:45;;;;;;;11.03;2.90;;;;;;;27.53;78.19;99023.31;4991782;28;20309;-72
2022/08/25 05:16:13;;;;;;;8.10;3.00;;;;;;;27.77;77.46;99022.88;4991984;28;20648;-73
2022/08/25 05:18:40;;;;;;;5.33;2.90;;;;;;;28.02;75.38;99024.84;4991965;28;20226;-74
2022/08/25 05:21:09;;;;;;;5.93;2.93;;;;;;;28.21;74.89;99019.84;4995640;28;20265;-74
2022/08/25 05:23:37;;;;;;;9.60;3.20;;;;;;;28.46;74.72;99021.81;4996287;28;20194;-75
2022/08/25 05:26:06;;;;;;;7.87;3.30;;;;;;;28.48;72.71;99022.28;4996248;28;20245;-75
2022/08/25 05:28:33;;;;;;;8.07;3.50;;;;;;;28.65;71.32;99024.97;4995661;28;20233;-73
2022/08/25 05:31:01;;;;;;;6.50;3.23;;;;;;;28.90;70.74;99024.09;4995550;28;20222;-74
2022/08/25 05:33:30;;;;;;;5.80;3.60;;;;;;;29.10;69.20;99015.19;4995679;28;20198;-74
2022/08/25 05:35:56;;;;;;;8.50;3.53;;;;;;;29.29;67.89;99032.03;4995494;28;20206;-74
2022/08/25 05:38:23;;;;;;;5.90;3.27;;;;;;;29.23;68.25;99018.84;4996048;28;20190;-74
2022/08/25 05:40:52;;;;;;;5.93;3.43;;;;;;;29.19;68.02;99026.91;4995743;28;20213;-74
2022/08/25 05:43:19;;;;;;;10.83;3.80;;;;;;;29.50;66.86;99021.94;4995511;28;20191;-74
2022/08/25 05:45:46;;;;;;;10.00;4.30;;;;;;;29.83;64.33;99031.09;4995003;28;20199;-73
2022/08/25 05:48:13;;;;;;;8.70;4.43;;;;;;;29.89;63.31;99031.69;4995826;28;20286;-74
2022/08/25 05:50:41;;;;;;;7.83;4.93;;;;;;;30.05;62.98;99030.75;4995338;28;20647;-73
2022/08/25 05:53:08;;;;;;;15.17;4.73;;;;;;;30.30;62.29;99024.31;4995026;28;20733;-73
2022/08/25 05:55:35;;;;;;;15.37;5.17;;;;;;;30.43;61.07;99033.38;4995555;28;20194;-74
2022/08/25 05:58:01;;;;;;;10.17;5.33;;;;;;;29.83;62.77;99022.88;4995202;28;20202;-74
2022/08/25 06:00:28;;;;;;;15.63;6.30;;;;;;;29.24;64.21;99019.31;4995581;28;20209;-74
2022/08/25 06:02:54;;;;;;;12.10;5.70;;;;;;;29.16;64.17;99011.16;5001696;28;20972;-73
2022/08/25 06:05:22;;;;;;;8.10;6.03;;;;;;;29.56;63.69;99012.38;5014719;28;20264;-74
2022/08/25 06:07:52;;;;;;;15.97;6.93;;;;;;;29.75;63.57;99012.78;5014404;28;20687;-75
2022/08/25 06:10:19;;;;;;;11.67;5.83;;;;;;;30.11;61.94;99018.47;5013891;28;20709;-75
2022/08/25 06:12:46;;;;;;;14.23;5.67;;;;;;;30.36;61.20;99001.00;5014581;28;20279;-75
2022/08/25 06:15:15;;;;;;;12.47;6.50;;;;;;;30.62;60.16;99015.25;5014685;28;20198;-75
2022/08/25 06:17:42;;;;;;;14.33;6.50;;;;;;;30.70;59.62;99014.41;5014349;28;20256;-74
2022/08/25 06:20:11;;;;;;;14.27;6.70;;;;;;;30.53;59.81;99014.56;5014696;28;20289;-73
2022/08/25 06:22:39;;;;;;;15.17;6.80;;;;;;;30.53;60.07;99011.81;5014036;28;20216;-75
2022/08/25 06:25:09;;;;;;;18.87;6.57;;;;;;;30.77;59.58;99011.91;5014026;28;20225;-75
2022/08/25 06:27:37;;;;;;;12.17;7.00;;;;;;;31.02;58.57;99018.22;5014519;28;20194;-74
2022/08/25 06:30:05;;;;;;;13.07;6.93;;;;;;;31.00;58.38;99010.34;5013926;28;20234;-75
2022/08/25 06:32:32;;;;;;;18.20;7.10;;;;;;;31.16;58.64;99013.22;5014020;28;20206;-75
2022/08/25 06:34:58;;;;;;;19.17;7.27;;;;;;;31.25;58.61;99006.50;5013976;28;20658;-74
2022/08/25 06:37:25;;;;;;;19.57;7.07;;;;;;;31.15;58.22;99001.44;5013806;28;20677;-74
2022/08/25 06:39:52;;;;;;;15.80;7.80;;;;;;;31.03;58.60;99004.16;5013860;28;20198;-74
2022/08/25 06:42:20;;;;;;;13.23;7.03;;;;;;;31.01;57.73;99000.16;5014012;28;20666;-74
2022/08/25 06:44:47;;;;;;;14.53;7.23;;;;;;;30.74;58.75;98998.88;5014409;28;20194;-75
2022/08/25 06:47:15;;;;;;;16.33;7.27;;;;;;;30.74;59.02;98995.34;5014180;28;20194;-74
2022/08/25 06:49:42;;;;;;;21.13;8.17;;;;;;;30.34;59.33;98992.31;5013720;28;20304;-74
2022/08/25 06:52:09;;;;;;;15.10;7.10;;;;;;;30.39;59.06;98986.66;5013741;28;20225;-74
2022/08/25 06:54:35;;;;;;;17.27;8.00;;;;;;;30.29;59.49;98989.78;5013452;28;20249;-74
2022/08/25 06:57:03;;;;;;;10.00;7.50;;;;;;;30.39;59.74;98991.31;5013894;28;20198;-74
2022/08/25 06:59:31;;;;;;;22.80;7.70;;;;;;;30.71;59.28;98982.28;5013633;28;20271;-74
2022/08/25 07:01:59;;;;;;;23.90;7.90;;;;;;;30.93;58.89;98992.84;5013976;28;20204;-75
2022/08/25 07:04:25;;;;;;;19.37;8.20;;;;;;;30.91;58.06;98995.91;4994649;28;20202;-75
2022/08/25 07:06:52;;;;;;;23.23;8.50;;;;;;;31.07;58.22;98990.59;4993932;28;20242;-75
2022/08/25 07:09:19;;;;;;;28.83;8.00;;;;;;;31.26;58.25;98993.56;4994049;28;20203;-75
2022/08/25 07:11:46;;;;;;;22.30;7.80;;;;;;;31.32;57.80;98995.75;4994014;28;20219;-74
2022/08/25 07:14:16;;;;;;;19.30;7.97;;;;;;;31.13;57.98;98984.53;4993472;28;20195;-75
2022/08/25 07:16:45;;;;;;;23.27;8.03;;;;;;;31.28;58.03;98985.81;4993941;28;20281;-75
2022/08/25 07:19:11;;;;;;;32.10;9.27;;;;;;;31.36;58.24;98974.69;4993563;28;20210;-75
2022/08/25 07:21:41;;;;;;;18.63;8.00;;;;;;;31.46;57.44;98978.91;4993433;28;20210;-73
2022/08/25 07:24:11;;;;;;;25.93;8.73;;;;;;;31.49;56.99;98968.06;4993754;28;20199;-73
2022/08/25 07:26:41;;;;;;;31.70;10.40;;;;;;;31.48;56.24;98982.91;4994183;28;20273;-73
2022/08/25 07:29:10;;;;;;;25.23;9.20;;;;;;;31.42;55.05;98980.75;4992820;28;20226;-73
2022/08/25 07:31:38;;;;;;;27.03;10.10;;;;;;;31.58;55.66;98987.94;4993401;28;20229;-74
2022/08/25 07:36:50;;;;;;;25.50;9.27;;;;;;;31.73;55.15;98984.47;4993895;28;20190;-74
2022/08/25 07:39:17;;;;;;;28.43;9.50;;;;;;;31.73;55.54;98984.47;4993230;28;20248;-74
2022/08/25 07:41:45;;;;;;;26.70;10.03;;;;;;;31.88;54.87;98981.03;4992737;28;20221;-74
2022/08/25 07:44:13;;;;;;;46.43;10.40;;;;;;;32.13;53.95;98988.06;4992675;28;20269;-74
2022/08/25 07:46:40;;;;;;;27.60;10.13;;;;;;;32.44;53.98;98984.63;4993042;28;20620;-74
2022/08/25 07:49:09;;;;;;;25.97;9.20;;;;;;;32.56;53.45;98995.56;4993311;28;20635;-74
2022/08/25 07:51:36;;;;;;;49.60;10.67;;;;;;;32.55;53.23;98988.47;4993294;28;20222;-75
2022/08/25 07:54:02;;;;;;;12.00;8.20;;;;;;;32.52;52.54;98989.97;4993151;28;20202;-75
2022/08/25 07:56:29;;;;;;;30.13;9.23;;;;;;;32.70;52.14;98999.50;4992937;28;20202;-75
2022/08/25 07:58:56;;;;;;;24.63;9.67;;;;;;;32.82;52.85;98996.69;4993110;28;20203;-76
2022/08/25 08:01:24;;;;;;;30.07;9.77;;;;;;;32.65;52.45;99002.50;4992739;28;20242;-75
2022/08/25 08:03:52;;;;;;;24.70;9.37;;;;;;;32.54;52.38;98993.16;5007272;28;20194;-75
2022/08/25 08:06:23;;;;;;;18.00;8.87;;;;;;;32.86;52.43;98994.84;5012887;28;20198;-75
2022/08/25 08:08:52;;;;;;;26.33;10.00;;;;;;;32.99;52.30;98993.59;5012855;28;20194;-76
2022/08/25 08:11:21;;;;;;;28.50;10.03;;;;;;;33.14;51.73;99001.06;5012721;28;20217;-75
2022/08/25 08:13:49;;;;;;;22.47;8.90;;;;;;;33.26;51.57;98998.22;5012035;28;20193;-75
2022/08/25 08:16:17;;;;;;;31.10;9.25;;;;;;;33.50;51.49;98996.41;5012528;28;20193;-75
2022/08/25 08:18:45;;;;;;;22.35;8.90;;;;;;;33.78;50.53;98997.06;5012184;28;20617;-75
2022/08/25 08:21:13;;;;;;;19.08;9.18;;;;;;;33.87;49.61;99000.44;5012527;28;20198;-75
2022/08/25 08:23:41;;;;;;;25.88;9.40;;;;;;;34.12;47.10;99005.31;5012894;28;20627;-75
2022/08/25 08:26:08;;;;;;;38.08;9.70;;;;;;;34.16;45.75;99008.94;5012221;28;20736;-74
2022/08/25 08:28:35;;;;;;;19.73;8.73;;;;;;;34.16;45.94;99013.69;5012363;28;20226;-75
2022/08/25 08:31:01;;;;;;;30.92;9.02;;;;;;;34.16;45.23;99016.44;5011937;28;20206;-75
2022/08/25 08:33:28;;;;;;;32.97;9.40;;;;;;;34.18;45.93;99011.34;5012435;28;20198;-75
2022/08/25 08:36:03;;;;;;;27.80;9.13;;;;;;;34.05;45.39;99007.16;5012466;28;20205;-75
2022/08/25 08:38:30;;;;;;;22.33;8.65;;;;;;;34.11;44.62;99008.44;5011912;28;20743;-75
2022/08/25 08:43:56;;;;;;;28.00;8.63;;;;;;;34.47;45.16;99005.28;5011648;28;20181;-75
2022/08/25 08:46:25;;;;;;;18.92;8.43;;;;;;;34.46;44.99;99009.19;5012643;28;20279;-73
2022/08/25 08:49:00;;;;;;;38.67;9.02;;;;;;;34.15;45.05;99012.06;5011678;28;20682;-74
2022/08/25 08:51:33;;;;;;;40.58;9.27;;;;;;;34.30;45.13;99008.44;5012509;28;20209;-75
2022/08/25 08:54:07;;;;;;;30.33;8.98;;;;;;;34.08;44.91;99009.97;5014931;28;20186;-75
2022/08/25 08:56:38;;;;;;;29.80;8.43;;;;;;;34.00;44.02;99005.47;5016370;28;20194;-74
2022/08/25 08:59:11;;;;;;;29.52;8.13;;;;;;;33.98;44.53;99006.97;5016660;28;20244;-74
2022/08/25 09:01:45;;;;;;;27.08;8.77;;;;;;;34.03;43.62;99003.94;5016262;28;20211;-74
2022/08/25 09:04:18;;;;;;;28.20;8.70;;;;;;;34.04;43.33;99011.06;4998907;28;20294;-74
2022/08/25 09:06:46;;;;;;;31.70;8.55;;;;;;;34.16;43.40;99013.69;4996794;28;20187;-74
2022/08/25 09:09:19;;;;;;;28.55;9.00;;;;;;;34.28;42.69;99021.78;4996214;28;20201;-74
2022/08/25 09:11:56;;;;;;;29.02;8.85;;;;;;;34.46;42.55;99011.97;4996468;28;20206;-75
2022/08/25 09:14:38;;;;;;;40.35;9.10;;;;;;;34.45;42.31;99010.38;4996084;28;20198;-75
2022/08/25 09:17:12;;;;;;;32.33;8.50;;;;;;;34.43;41.52;99007.97;4996044;28;20191;-75
2022/08/25 09:19:57;;;;;;;42.10;8.43;;;;;;;34.55;41.84;98993.19;4996068;28;20183;-75
2022/08/25 09:22:37;;;;;;;35.70;8.13;;;;;;;34.42;41.70;99005.56;4996228;28;20637;-75
2022/08/25 09:25:15;;;;;;;27.73;7.72;;;;;;;34.39;42.49;99006.28;4996547;28;20183;-75
2022/08/25 09:27:50;;;;;;;28.50;8.13;;;;;;;34.29;41.47;99007.63;4996871;28;20194;-74
2022/08/25 09:30:19;;;;;;;31.55;8.07;;;;;;;34.55;41.50;99001.47;4996073;28;20664;-74
2022/08/25 09:32:48;;;;;;;25.42;7.88;;;;;;;34.51;40.94;99003.38;4995411;28;20226;-74
2022/08/25 09:35:19;;;;;;;77.75;10.90;;;;;;;34.62;40.26;98990.59;4995629;28;20195;-75
2022/08/25 09:37:56;;;;;;;41.15;8.93;;;;;;;34.96;39.87;98992.41;4995521;28;20190;-75
2022/08/25 09:40:24;;;;;;;30.05;7.50;;;;;;;35.14;40.10;98982.44;4995979;28;20289;-76
2022/08/25 09:42:55;;;;;;;38.40;8.10;;;;;;;35.30;38.83;98985.88;4996197;28;20285;-75
2022/08/25 09:45:43;;;;;;;30.02;7.68;;;;;;;35.35;38.59;98971.78;4995749;28;20249;-75
2022/08/25 09:48:22;;;;;;;48.97;8.55;;;;;;;35.22;39.02;98957.34;4995143;28;20265;-75
2022/08/25 09:50:50;;;;;;;23.50;7.75;;;;;;;35.41;38.26;98953.69;4995521;28;20182;-76
2022/08/25 09:53:17;;;;;;;36.72;8.27;;;;;;;35.43;37.73;98960.44;4995473;28;20205;-76
2022/08/25 09:55:47;;;;;;;40.92;7.22;;;;;;;35.50;36.47;98951.47;4995043;28;20245;-76
2022/08/25 09:58:20;;;;;;;34.83;7.72;;;;;;;35.59;38.17;98943.69;4995906;28;20269;-76
2022/08/25 10:01:02;;;;;;;44.65;8.40;;;;;;;35.19;36.79;98941.50;4995419;28;20183;-75
2022/08/25 10:03:29;;;;;;;32.08;6.68;;;;;;;35.00;36.33;98943.56;5006487;28;20210;-75
2022/08/25 10:06:04;;;;;;;33.63;7.03;;;;;;;35.15;36.23;98926.84;5014165;28;20194;-75
2022/08/25 10:08:35;;;;;;;32.35;6.32;;;;;;;35.46;37.05;98934.03;5014875;28;20255;-76
2022/08/25 10:11:04;;;;;;;28.55;6.38;;;;;;;35.80;36.11;98932.97;5014430;28;20745;-75
2022/08/25 10:13:41;;;;;;;33.05;6.03;;;;;;;35.87;35.83;98933.03;5014471;28;20293;-75
2022/08/25 10:16:14;;;;;;;23.73;7.20;;;;;;;35.96;36.84;98926.03;5014398;28;20240;-76
2022/08/25 10:18:41;;;;;;;41.25;8.30;;;;;;;35.80;36.58;98927.44;5014843;28;20182;-76
2022/08/25 10:21:12;;;;;;;38.20;7.07;;;;;;;35.43;36.62;98907.94;5014542;28;20264;-75
2022/08/25 10:23:43;;;;;;;27.45;7.32;;;;;;;35.64;36.60;98922.03;5014209;28;20680;-75
2022/08/25 10:26:18;;;;;;;34.78;6.55;;;;;;;35.50;36.13;98923.81;5014552;28;20193;-75
2022/08/25 10:29:00;;;;;;;32.05;7.35;;;;;;;35.37;35.93;98920.50;5014283;28;20234;-75
2022/08/25 10:31:35;;;;;;;31.13;7.57;;;;;;;35.50;36.98;98912.78;5014267;28;20226;-74
2022/08/25 10:34:18;;;;;;;50.92;7.97;;;;;;;35.77;35.89;98912.38;5014517;28;20609;-75
2022/08/25 10:36:56;;;;;;;46.28;6.88;;;;;;;35.73;35.25;98913.47;5014221;28;20190;-76
2022/08/25 10:39:36;;;;;;;39.25;7.18;;;;;;;35.88;35.08;98912.53;5013857;28;20186;-76
2022/08/25 10:42:17;;;;;;;32.25;7.47;;;;;;;35.82;35.59;98902.97;5013977;28;20244;-75
2022/08/25 10:47:54;;;;;;;48.80;7.85;;;;;;;35.59;35.56;98899.47;5014085;28;20287;-75
2022/08/25 10:50:28;;;;;;;37.97;7.20;;;;;;;35.45;36.90;98885.47;5014527;28;20213;-75
2022/08/25 10:53:13;;;;;;;36.83;7.75;;;;;;;35.44;35.47;98892.16;5013478;28;20210;-75
2022/08/25 10:55:48;;;;;;;47.38;6.90;;;;;;;35.56;35.85;98889.19;5014148;28;20233;-75
2022/08/25 10:58:23;;;;;;;35.45;5.95;;;;;;;35.39;34.59;98890.53;5014216;28;20182;-75
2022/08/25 11:01:03;;;;;;;46.85;7.43;;;;;;;35.54;35.62;98880.44;5014388;28;20251;-75
2022/08/25 11:03:47;;;;;;;35.40;6.18;;;;;;;35.91;34.26;98884.09;5002614;28;20254;-75
2022/08/25 11:06:19;;;;;;;23.52;5.90;;;;;;;35.93;33.92;98881.78;4994507;28;20282;-75
2022/08/25 11:08:49;;;;;;;28.92;6.15;;;;;;;35.84;34.16;98876.53;4995268;28;20187;-75
2022/08/25 11:11:23;;;;;;;31.50;6.43;;;;;;;35.90;33.34;98877.00;4994299;28;20252;-74
2022/08/25 11:13:55;;;;;;;33.28;6.32;;;;;;;35.60;33.92;98895.56;4994278;28;20191;-75
2022/08/25 11:16:33;;;;;;;28.90;6.70;;;;;;;35.52;34.16;98882.81;4993477;28;20639;-75
2022/08/25 11:19:07;;;;;;;35.95;6.57;;;;;;;35.50;35.37;98879.59;4993747;28;20225;-75
2022/08/25 11:21:42;;;;;;;33.30;6.35;;;;;;;35.53;34.70;98874.16;4993789;28;20265;-75
2022/08/25 11:24:21;;;;;;;27.83;6.88;;;;;;;35.42;35.52;98875.97;4994756;28;20218;-73
2022/08/25 11:26:54;;;;;;;32.90;6.15;;;;;;;35.53;35.38;98873.34;4993906;28;20187;-73
2022/08/25 11:29:25;;;;;;;45.13;6.80;;;;;;;35.45;36.01;98872.47;4993592;28;20300;-75
2022/08/25 11:31:54;;;;;;;36.85;7.63;;;;;;;35.43;35.63;98871.25;4993267;28;20698;-75
2022/08/25 11:34:22;;;;;;;34.92;6.35;;;;;;;35.36;35.26;98868.38;4993154;28;20667;-74
2022/08/25 11:36:52;;;;;;;29.20;5.95;;;;;;;35.49;34.93;98869.72;4992914;28;20191;-75
2022/08/25 11:39:33;;;;;;;26.10;6.20;;;;;;;35.59;35.28;98869.06;4994320;28;20190;-75
2022/08/25 11:42:11;;;;;;;30.15;6.00;;;;;;;35.72;35.21;98870.44;4993742;28;20191;-75
2022/08/25 11:44:49;;;;;;;28.65;5.68;;;;;;;35.67;34.39;98863.25;4993423;28;20269;-76
2022/08/25 11:47:33;;;;;;;31.98;6.30;;;;;;;35.70;35.06;98865.28;4993497;28;20597;-75